createdAt,value
2023-01-13T00:01:00.176Z,99636.55
2023-01-13T00:03:28.001Z,99634.02
2023-01-13T00:05:55.708Z,99633.27
2023-01-13T00:08:23.376Z,99633.96
2023-01-13T00:10:51.037Z,99630.63
2023-01-13T00:13:26.665Z,99633.02
2023-01-13T00:15:58.102Z,99627.29
2023-01-13T00:18:26.028Z,99623.11
2023-01-13T00:21:20.139Z,99616.39
2023-01-13T00:23:47.880Z,99621.55
2023-01-13T00:26:19.794Z,99616.41
2023-01-13T00:28:47.648Z,99615.19
2023-01-13T00:31:16.443Z,99617.58
2023-01-13T00:33:44.173Z,99616.84
2023-01-13T00:36:12.728Z,99615.70
2023-01-13T00:38:40.663Z,99618.94
2023-01-13T00:41:12.248Z,99619.98
2023-01-13T00:43:40.081Z,99612.35
2023-01-13T00:46:08.506Z,99612.02
2023-01-13T00:48:36.589Z,99615.67
2023-01-13T00:51:14.970Z,99613.10
2023-01-13T00:53:43.917Z,99611.59
2023-01-13T00:56:11.571Z,99614.32
2023-01-13T00:58:39.168Z,99612.63
2023-01-13T01:01:07.964Z,99610.33
2023-01-13T01:03:35.955Z,99608.34
2023-01-13T01:06:05.367Z,99608.34
2023-01-13T01:08:33.627Z,99606.11
2023-01-13T01:11:02.454Z,99599.23
2023-01-13T01:13:30.214Z,99599.41
2023-01-13T01:15:58.097Z,99602.02
2023-01-13T01:18:25.931Z,99597.02
2023-01-13T01:20:53.575Z,99591.71
2023-01-13T01:23:21.201Z,99583.30
2023-01-13T01:25:48.824Z,99576.31
2023-01-13T01:28:19.350Z,99566.09
2023-01-13T01:30:47.041Z,99561.86
2023-01-13T01:33:14.809Z,99562.75
2023-01-13T01:35:43.051Z,99558.93
2023-01-13T01:38:10.972Z,99553.27
2023-01-13T01:40:38.675Z,99554.23
2023-01-13T01:43:51.465Z,99551.59
2023-01-13T01:46:19.207Z,99554.07
2023-01-13T01:48:46.861Z,99545.05
2023-01-13T01:51:14.587Z,99544.34
2023-01-13T01:53:42.199Z,99540.88
2023-01-13T01:56:09.807Z,99536.42
2023-01-13T01:58:39.465Z,99535.94
2023-01-13T02:01:07.245Z,99531.80
2023-01-13T02:03:36.232Z,99533.76
2023-01-13T02:06:04.160Z,99529.75
2023-01-13T02:08:31.823Z,99529.05
2023-01-13T02:10:59.456Z,99523.15
2023-01-13T02:13:27.171Z,99521.34
2023-01-13T02:16:15.123Z,99522.82
2023-01-13T02:19:01.048Z,99529.13
2023-01-13T02:21:31.869Z,99532.72
2023-01-13T02:24:25.288Z,99532.05
2023-01-13T02:27:12.331Z,99535.64
2023-01-13T02:33:13.751Z,99536.81
2023-01-13T02:35:51.489Z,99538.11
2023-01-13T02:38:39.387Z,99541.67
2023-01-13T02:41:37.585Z,99536.92
2023-01-13T02:44:08.102Z,99529.27
2023-01-13T02:46:41.972Z,99531.77
2023-01-13T02:49:10.335Z,99533.35
2023-01-13T02:51:37.983Z,99534.83
2023-01-13T02:54:05.641Z,99532.36
2023-01-13T02:56:35.456Z,99534.33
2023-01-13T02:59:03.212Z,99526.08
2023-01-13T03:01:31.053Z,99525.02
2023-01-13T03:03:58.796Z,99528.20
2023-01-13T03:06:29.777Z,99520.73
2023-01-13T03:09:05.473Z,99521.68
2023-01-13T03:11:34.890Z,99521.74
2023-01-13T03:14:09.408Z,99516.84
2023-01-13T03:16:38.423Z,99520.84
2023-01-13T03:19:06.184Z,99522.86
2023-01-13T03:21:52.668Z,99514.73
2023-01-13T03:24:21.452Z,99518.11
2023-01-13T03:26:50.424Z,99514.87
2023-01-13T03:29:19.534Z,99512.30
2023-01-13T03:32:05.520Z,99509.31
2023-01-13T03:34:34.611Z,99508.40
2023-01-13T03:37:03.495Z,99509.04
2023-01-13T03:39:32.278Z,99511.77
2023-01-13T03:42:01.873Z,99511.17
2023-01-13T03:44:34.121Z,99506.03
2023-01-13T03:47:13.011Z,99510.44
2023-01-13T03:49:40.885Z,99506.56
2023-01-13T03:52:09.783Z,99500.30
2023-01-13T03:54:43.340Z,99502.73
2023-01-13T03:57:12.036Z,99500.62
2023-01-13T03:59:41.670Z,99500.90
2023-01-13T04:02:11.222Z,99502.26
2023-01-13T04:04:44.058Z,99500.38
2023-01-13T04:07:24.756Z,99499.89
2023-01-13T04:10:02.479Z,99495.59
2023-01-13T04:12:52.511Z,99495.34
2023-01-13T04:15:24.520Z,99497.88
2023-01-13T04:17:52.963Z,99497.25
2023-01-13T04:20:21.069Z,99491.14
2023-01-13T04:22:48.704Z,99491.53
2023-01-13T04:25:16.643Z,99493.32
2023-01-13T04:27:44.839Z,99486.25
2023-01-13T04:30:12.621Z,99490.34
2023-01-13T04:32:40.551Z,99487.05
2023-01-13T04:35:08.711Z,99482.45
2023-01-13T04:37:36.437Z,99480.38
2023-01-13T04:40:04.488Z,99478.83
2023-01-13T04:42:32.122Z,99477.55
2023-01-13T04:44:59.915Z,99472.56
2023-01-13T04:47:27.609Z,99469.33
2023-01-13T04:49:55.210Z,99464.19
2023-01-13T04:52:22.942Z,99467.80
2023-01-13T04:54:50.596Z,99464.78
2023-01-13T04:57:18.327Z,99464.10
2023-01-13T04:59:45.994Z,99463.98
2023-01-13T05:02:19.953Z,99464.42
2023-01-13T05:04:48.106Z,99464.41
2023-01-13T05:07:16.412Z,99466.55
2023-01-13T05:09:44.072Z,99469.30
2023-01-13T05:12:31.204Z,99467.91
2023-01-13T05:15:18.123Z,99467.00
2023-01-13T05:17:46.185Z,99472.52
2023-01-13T05:20:14.393Z,99471.76
2023-01-13T05:23:01.224Z,99470.77
2023-01-13T05:25:29.096Z,99476.84
2023-01-13T05:27:57.943Z,99473.88
2023-01-13T05:30:26.967Z,99477.18
2023-01-13T05:32:54.636Z,99478.06
2023-01-13T05:35:22.587Z,99475.95
2023-01-13T05:37:50.584Z,99474.70
2023-01-13T05:40:37.189Z,99473.48
2023-01-13T05:43:21.360Z,99474.31
2023-01-13T05:45:53.835Z,99477.13
2023-01-13T05:48:22.005Z,99475.36
2023-01-13T05:50:49.763Z,99471.62
2023-01-13T05:53:17.879Z,99475.34
2023-01-13T05:55:45.806Z,99468.92
2023-01-13T05:58:14.540Z,99471.27
2023-01-13T06:00:42.406Z,99469.98
2023-01-13T06:03:10.670Z,99468.50
2023-01-13T06:05:38.650Z,99468.51
2023-01-13T06:08:06.946Z,99474.44
2023-01-13T06:10:37.136Z,99474.07
2023-01-13T06:13:04.964Z,99476.85
2023-01-13T06:15:32.842Z,99471.13
2023-01-13T06:18:02.227Z,99469.80
2023-01-13T06:20:29.909Z,99471.96
2023-01-13T06:22:57.725Z,99468.96
2023-01-13T06:25:28.516Z,99468.88
2023-01-13T06:27:59.127Z,99469.61
2023-01-13T06:30:27.946Z,99469.38
2023-01-13T06:32:55.917Z,99462.69
2023-01-13T06:35:25.228Z,99465.44
2023-01-13T06:37:53.576Z,99471.91
2023-01-13T06:40:21.420Z,99465.27
2023-01-13T06:43:07.727Z,99470.95
2023-01-13T06:45:35.534Z,99473.98
2023-01-13T06:48:03.234Z,99467.98
2023-01-13T06:50:30.978Z,99468.31
2023-01-13T06:52:58.608Z,99468.77
2023-01-13T06:55:26.237Z,99467.15
2023-01-13T06:57:54.996Z,99468.00
2023-01-13T07:00:23.198Z,99468.30
2023-01-13T07:02:50.950Z,99471.69
2023-01-13T07:05:19.504Z,99473.65
2023-01-13T07:07:47.190Z,99462.78
2023-01-13T07:10:22.369Z,99464.20
2023-01-13T07:13:08.906Z,99463.39
2023-01-13T07:15:36.580Z,99464.78
2023-01-13T07:18:04.251Z,99473.81
2023-01-13T07:20:31.969Z,99475.23
2023-01-13T07:22:59.678Z,99480.38
2023-01-13T07:25:27.336Z,99484.14
2023-01-13T07:27:57.167Z,99481.30
2023-01-13T07:30:24.840Z,99477.92
2023-01-13T07:32:52.582Z,99479.70
2023-01-13T07:35:23.109Z,99480.89
2023-01-13T07:37:50.804Z,99480.52
2023-01-13T07:40:18.638Z,99479.86
2023-01-13T07:43:05.299Z,99484.09
2023-01-13T07:45:33.082Z,99485.74
2023-01-13T07:48:00.752Z,99491.67
2023-01-13T07:50:28.668Z,99492.66
2023-01-13T07:52:59.235Z,99490.48
2023-01-13T07:55:26.969Z,99489.68
2023-01-13T07:57:54.710Z,99486.63
2023-01-13T08:00:22.756Z,99484.69
2023-01-13T08:02:50.444Z,99487.84
2023-01-13T08:05:18.211Z,99487.94
2023-01-13T08:07:45.824Z,99487.66
2023-01-13T08:10:13.725Z,99492.38
2023-01-13T08:13:00.533Z,99487.36
2023-01-13T08:15:29.780Z,99490.70
2023-01-13T08:17:58.294Z,99489.20
2023-01-13T08:20:25.952Z,99492.41
2023-01-13T08:22:57.944Z,99498.09
2023-01-13T08:25:26.414Z,99499.34
2023-01-13T08:27:54.107Z,99497.03
2023-01-13T08:30:21.893Z,99498.01
2023-01-13T08:32:50.073Z,99502.48
2023-01-13T08:35:17.922Z,99493.80
2023-01-13T08:37:45.781Z,99492.60
2023-01-13T08:40:13.805Z,99496.37
2023-01-13T08:42:41.442Z,99493.89
2023-01-13T08:45:09.623Z,99495.82
2023-01-13T08:47:37.279Z,99500.52
2023-01-13T08:50:05.517Z,99496.77
2023-01-13T08:52:33.316Z,99502.70
2023-01-13T08:55:00.923Z,99507.09
2023-01-13T08:57:28.778Z,99507.53
2023-01-13T08:59:56.575Z,99512.06
2023-01-13T09:02:24.422Z,99509.86
2023-01-13T09:04:52.499Z,99504.81
2023-01-13T09:07:20.271Z,99508.83
2023-01-13T09:09:47.929Z,99506.44
2023-01-13T09:12:34.724Z,99509.96
2023-01-13T09:15:02.439Z,99512.42
2023-01-13T09:17:30.277Z,99513.42
2023-01-13T09:19:57.980Z,99513.90
2023-01-13T09:22:27.203Z,99518.50
2023-01-13T09:24:55.244Z,99513.50
2023-01-13T09:27:23.045Z,99516.43
2023-01-13T09:29:50.750Z,99514.88
2023-01-13T09:32:18.446Z,99511.89
2023-01-13T09:35:01.473Z,99510.47
2023-01-13T09:37:30.004Z,99509.28
2023-01-13T09:39:57.696Z,99507.59
2023-01-13T09:42:46.410Z,99506.75
2023-01-13T09:45:19.606Z,99506.05
2023-01-13T09:47:47.468Z,99508.17
2023-01-13T09:50:15.117Z,99495.24
2023-01-13T09:52:43.186Z,99491.27
2023-01-13T09:55:12.216Z,99486.95
2023-01-13T09:57:40.267Z,99485.05
2023-01-13T10:00:11.525Z,99487.15
2023-01-13T10:02:42.685Z,99484.61
2023-01-13T10:05:13.205Z,99485.62
2023-01-13T10:07:42.815Z,99483.16
2023-01-13T10:10:15.723Z,99484.86
2023-01-13T10:13:02.671Z,99481.96
2023-01-13T10:15:30.393Z,99481.45
2023-01-13T10:18:15.736Z,99473.09
2023-01-13T10:20:43.387Z,99475.86
2023-01-13T10:23:34.261Z,99478.77
2023-01-13T10:26:05.058Z,99469.86
2023-01-13T10:28:32.792Z,99476.71
2023-01-13T10:31:00.432Z,99473.66
2023-01-13T10:33:28.576Z,99471.41
2023-01-13T10:36:15.393Z,99470.73
2023-01-13T10:38:43.087Z,99465.66
2023-01-13T10:41:13.610Z,99457.38
2023-01-13T10:43:44.991Z,99460.45
2023-01-13T10:46:16.008Z,99457.86
2023-01-13T10:48:44.609Z,99452.83
2023-01-13T10:51:12.349Z,99455.15
2023-01-13T10:53:49.429Z,99459.32
2023-01-13T10:56:18.187Z,99458.69
2023-01-13T10:58:46.005Z,99452.73
2023-01-13T11:01:20.841Z,99457.18
2023-01-13T11:03:48.848Z,99454.35
2023-01-13T11:06:35.455Z,99452.10
2023-01-13T11:09:03.250Z,99444.70
2023-01-13T11:11:38.330Z,99442.88
2023-01-13T11:14:27.109Z,99440.05
2023-01-13T11:16:55.407Z,99439.50
2023-01-13T11:19:23.075Z,99439.89
2023-01-13T11:22:11.114Z,99443.49
2023-01-13T11:24:40.319Z,99445.05
2023-01-13T11:27:17.322Z,99441.21
2023-01-13T11:30:09.574Z,99444.09
2023-01-13T11:32:39.754Z,99440.44
2023-01-13T11:35:15.135Z,99439.73
2023-01-13T11:37:43.282Z,99443.01
2023-01-13T11:40:28.360Z,99440.23
2023-01-13T11:42:59.237Z,99441.14
2023-01-13T11:45:26.820Z,99439.23
2023-01-13T11:47:57.565Z,99435.35
2023-01-13T11:50:31.332Z,99437.35
2023-01-13T11:53:18.099Z,99438.38
2023-01-13T11:56:26.912Z,99434.77
2023-01-13T11:59:03.891Z,99430.20
2023-01-13T12:01:35.460Z,99424.90
2023-01-13T12:04:22.181Z,99439.44
2023-01-13T12:06:57.265Z,99432.08
2023-01-13T12:09:44.634Z,99435.23
2023-01-13T12:12:22.963Z,99431.86
2023-01-13T12:15:03.013Z,99427.77
2023-01-13T12:18:00.021Z,99423.77
2023-01-13T12:20:37.069Z,99419.86
2023-01-13T12:23:06.592Z,99423.89
2023-01-13T12:25:37.463Z,99426.73
2023-01-13T12:28:14.718Z,99427.20
2023-01-13T12:30:44.654Z,99425.75
2023-01-13T12:33:18.930Z,99423.30
2023-01-13T12:35:50.092Z,99419.99
2023-01-13T12:38:21.223Z,99424.17
2023-01-13T12:41:09.524Z,99422.88
2023-01-13T12:43:55.872Z,99425.27
2023-01-13T12:46:23.663Z,99428.63
2023-01-13T12:48:57.308Z,99421.84
2023-01-13T12:51:25.276Z,99425.90
2023-01-13T12:53:53.193Z,99427.21
2023-01-13T12:56:27.062Z,99432.27
2023-01-13T12:59:13.555Z,99435.70
2023-01-13T13:01:41.363Z,99429.16
2023-01-13T13:04:22.157Z,99434.25
2023-01-13T13:06:54.579Z,99436.58
2023-01-13T13:09:29.354Z,99440.47
2023-01-13T13:12:02.917Z,99440.14
2023-01-13T13:14:43.619Z,99443.98
2023-01-13T13:17:20.437Z,99450.62
2023-01-13T13:19:48.654Z,99460.66
2023-01-13T13:22:19.078Z,99466.27
2023-01-13T13:24:49.763Z,99469.61
2023-01-13T13:27:22.999Z,99479.34
2023-01-13T13:30:09.533Z,99485.41
2023-01-13T13:32:55.996Z,99503.32
2023-01-13T13:35:40.091Z,99520.37
2023-01-13T13:38:45.736Z,99526.39
2023-01-13T13:41:33.131Z,99528.14
2023-01-13T13:44:20.774Z,99525.81
2023-01-13T13:46:49.112Z,99534.62
2023-01-13T13:49:21.359Z,99530.76
2023-01-13T13:51:55.256Z,99537.54
2023-01-13T13:54:23.031Z,99549.02
2023-01-13T13:56:50.719Z,99545.02
2023-01-13T13:59:19.579Z,99543.75
2023-01-13T14:01:50.272Z,99540.28
2023-01-13T14:04:19.907Z,99535.25
2023-01-13T14:06:51.937Z,99541.32
2023-01-13T14:09:20.075Z,99546.85
2023-01-13T14:11:56.438Z,99546.98
2023-01-13T14:14:25.015Z,99549.15
2023-01-13T14:16:54.937Z,99550.14
2023-01-13T14:19:25.566Z,99551.74
2023-01-13T14:21:53.320Z,99548.12
2023-01-13T14:24:22.564Z,99542.67
2023-01-13T14:26:52.051Z,99534.60
2023-01-13T14:29:21.002Z,99531.33
2023-01-13T14:31:49.413Z,99519.96
2023-01-13T14:34:31.000Z,99507.91
2023-01-13T14:36:59.998Z,99534.07
2023-01-13T14:39:38.975Z,99539.19
2023-01-13T14:42:13.397Z,99538.48
2023-01-13T14:44:43.972Z,99540.05
2023-01-13T14:47:18.104Z,99545.36
2023-01-13T14:49:54.928Z,99550.99
2023-01-13T14:52:23.498Z,99560.96
2023-01-13T14:54:52.841Z,99561.68
2023-01-13T14:57:25.471Z,99562.88
2023-01-13T15:00:00.854Z,99561.88
2023-01-13T15:02:34.041Z,99565.92
2023-01-13T15:05:18.796Z,99570.82
2023-01-13T15:07:53.616Z,99573.66
2023-01-13T15:10:42.033Z,99580.00
2023-01-13T15:13:21.737Z,99582.79
2023-01-13T15:15:50.979Z,99588.88
2023-01-13T15:18:18.644Z,99590.96
2023-01-13T15:20:46.291Z,99589.61
2023-01-13T15:23:14.225Z,99585.95
2023-01-13T15:25:43.065Z,99591.50
2023-01-13T15:28:15.111Z,99591.75
2023-01-13T15:30:42.763Z,99587.69
2023-01-13T15:33:12.493Z,99589.98
2023-01-13T15:35:41.703Z,99584.28
2023-01-13T15:38:10.361Z,99584.71
2023-01-13T15:40:38.151Z,99583.42
2023-01-13T15:43:24.647Z,99586.97
2023-01-13T15:46:11.072Z,99597.38
2023-01-13T15:48:38.902Z,99593.80
2023-01-13T15:51:07.284Z,99593.57
2023-01-13T15:53:36.909Z,99594.22
2023-01-13T15:56:05.240Z,99600.00
2023-01-13T15:58:32.920Z,99600.91
2023-01-13T16:01:00.684Z,99599.17
2023-01-13T16:03:28.448Z,99599.35
2023-01-13T16:05:56.050Z,99602.76
2023-01-13T16:08:23.790Z,99613.31
2023-01-13T16:10:51.532Z,99620.08
2023-01-13T16:13:19.198Z,99621.91
2023-01-13T16:15:49.816Z,99622.06
2023-01-13T16:18:18.726Z,99618.89
2023-01-13T16:20:46.772Z,99624.64
2023-01-13T16:23:14.507Z,99622.20
2023-01-13T16:25:44.719Z,99623.09
2023-01-13T16:28:17.259Z,99620.45
2023-01-13T16:30:44.995Z,99621.69
2023-01-13T16:33:12.631Z,99620.85
2023-01-13T16:36:09.263Z,99627.94
2023-01-13T16:38:28.298Z,99635.13
2023-01-13T16:40:56.896Z,99641.96
2023-01-13T16:43:24.537Z,99648.92
2023-01-13T16:45:52.186Z,99645.01
2023-01-13T16:48:20.213Z,99645.21
2023-01-13T16:50:47.878Z,99652.09
2023-01-13T16:53:15.648Z,99652.91
2023-01-13T16:55:43.497Z,99660.83
2023-01-13T16:58:15.807Z,99660.95
2023-01-13T17:00:46.737Z,99660.19
2023-01-13T17:03:17.640Z,99659.20
2023-01-13T17:05:46.983Z,99660.30
2023-01-13T17:08:18.990Z,99668.59
2023-01-13T17:10:47.070Z,99672.16
2023-01-13T17:13:16.769Z,99673.65
2023-01-13T17:15:45.344Z,99673.01
2023-01-13T17:18:13.604Z,99676.62
2023-01-13T17:20:41.620Z,99680.95
2023-01-13T17:23:09.324Z,99678.76
2023-01-13T17:25:36.972Z,99677.08
2023-01-13T17:28:04.691Z,99681.89
2023-01-13T17:30:32.788Z,99684.98
2023-01-13T17:33:00.745Z,99689.99
2023-01-13T17:35:28.516Z,99685.94
2023-01-13T17:37:56.979Z,99693.03
2023-01-13T17:40:24.634Z,99688.39
2023-01-13T17:42:52.347Z,99692.67
2023-01-13T17:45:20.048Z,99691.30
2023-01-13T17:47:47.789Z,99687.00
2023-01-13T17:50:16.615Z,99684.93
2023-01-13T17:52:45.974Z,99684.60
2023-01-13T17:55:13.569Z,99685.50
2023-01-13T17:57:41.158Z,99690.08
2023-01-13T18:00:09.090Z,99694.81
2023-01-13T18:02:42.771Z,99698.88
2023-01-13T18:05:10.540Z,99700.30
2023-01-13T18:07:38.269Z,99712.62
2023-01-13T18:10:06.258Z,99706.82
2023-01-13T18:12:34.868Z,99698.70
2023-01-13T18:15:02.612Z,99697.71
2023-01-13T18:17:30.248Z,99699.24
2023-01-13T18:20:16.437Z,99703.05
2023-01-13T18:23:02.630Z,99710.28
2023-01-13T18:25:48.949Z,99717.27
2023-01-13T18:28:16.954Z,99724.72
2023-01-13T18:30:44.637Z,99727.88
2023-01-13T18:33:12.303Z,99731.60
2023-01-13T18:35:39.925Z,99726.80
2023-01-13T18:38:08.418Z,99720.85
2023-01-13T18:40:36.106Z,99724.17
2023-01-13T18:43:03.723Z,99725.90
2023-01-13T18:45:31.818Z,99724.48
2023-01-13T18:48:00.571Z,99729.02
2023-01-13T18:50:28.552Z,99729.45
2023-01-13T18:52:56.329Z,99731.92
2023-01-13T18:55:24.765Z,99738.33
2023-01-13T18:57:53.403Z,99742.10
2023-01-13T19:00:21.528Z,99746.90
2023-01-13T19:05:34.531Z,99742.89
2023-01-13T19:08:02.942Z,99750.08
2023-01-13T19:10:32.336Z,99753.95
2023-01-13T19:13:01.383Z,99754.24
2023-01-13T19:15:29.334Z,99751.38
2023-01-13T19:17:57.091Z,99753.71
2023-01-13T19:20:24.761Z,99757.80
2023-01-13T19:22:54.438Z,99767.60
2023-01-13T19:25:22.225Z,99760.81
2023-01-13T19:27:49.914Z,99762.91
2023-01-13T19:30:17.788Z,99766.89
2023-01-13T19:32:45.527Z,99769.42
2023-01-13T19:35:17.344Z,99769.77
2023-01-13T19:37:45.566Z,99775.02
2023-01-13T19:40:13.859Z,99776.99
2023-01-13T19:43:03.152Z,99781.36
2023-01-13T19:45:32.161Z,99787.98
2023-01-13T19:48:05.091Z,99791.73
2023-01-13T19:50:37.372Z,99791.15
2023-01-13T19:53:05.387Z,99794.73
2023-01-13T19:55:33.110Z,99795.40
2023-01-13T19:58:00.868Z,99800.60
2023-01-13T20:00:29.155Z,99803.15
2023-01-13T20:03:03.005Z,99806.86
2023-01-13T20:05:30.813Z,99809.02
2023-01-13T20:07:58.560Z,99812.55
2023-01-13T20:10:26.243Z,99806.98
2023-01-13T20:12:53.893Z,99812.77
2023-01-13T20:15:21.594Z,99817.76
2023-01-13T20:17:49.317Z,99814.71
2023-01-13T20:20:18.525Z,99815.09
2023-01-13T20:22:46.279Z,99813.98
2023-01-13T20:25:16.989Z,99815.31
2023-01-13T20:27:45.394Z,99823.92
2023-01-13T20:30:14.404Z,99832.85
2023-01-13T20:32:43.452Z,99837.00
2023-01-13T20:35:11.354Z,99849.96
2023-01-13T20:37:39.426Z,99855.80
2023-01-13T20:40:07.599Z,99860.95
2023-01-13T20:42:47.280Z,99858.90
2023-01-13T20:45:17.741Z,99866.50
2023-01-13T20:47:45.590Z,99861.55
2023-01-13T20:50:13.351Z,99867.39
2023-01-13T20:52:41.078Z,99864.86
2023-01-13T20:55:09.098Z,99867.21
2023-01-13T20:57:36.783Z,99872.77
2023-01-13T21:00:05.856Z,99877.66
2023-01-13T21:02:33.611Z,99878.10
2023-01-13T21:05:01.293Z,99879.52
2023-01-13T21:07:28.992Z,99878.86
2023-01-13T21:09:57.808Z,99876.51
2023-01-13T21:12:44.312Z,99880.11
2023-01-13T21:15:18.490Z,99881.33
2023-01-13T21:18:05.079Z,99885.13
2023-01-13T21:20:33.546Z,99888.11
2023-01-13T21:23:01.723Z,99884.48
2023-01-13T21:25:29.564Z,99889.29
2023-01-13T21:28:05.702Z,99886.30
2023-01-13T21:30:33.509Z,99886.80
2023-01-13T21:33:02.489Z,99890.00
2023-01-13T21:35:30.134Z,99892.26
2023-01-13T21:37:57.815Z,99894.95
2023-01-13T21:40:25.583Z,99891.98
2023-01-13T21:43:12.405Z,99895.89
2023-01-13T21:45:58.898Z,99897.55
2023-01-13T21:48:26.895Z,99899.64
2023-01-13T21:50:54.683Z,99900.74
2023-01-13T21:53:22.309Z,99905.31
2023-01-13T21:55:50.713Z,99901.23
2023-01-13T21:58:18.414Z,99898.91
2023-01-13T22:00:46.382Z,99900.83
2023-01-13T22:03:18.721Z,99903.64
2023-01-13T22:05:47.148Z,99903.19
2023-01-13T22:08:14.863Z,99912.39
2023-01-13T22:10:57.727Z,99916.00
2023-01-13T22:13:44.964Z,99915.10
2023-01-13T22:16:12.751Z,99912.46
2023-01-13T22:18:40.440Z,99915.52
2023-01-13T22:21:08.296Z,99915.87
2023-01-13T22:23:36.204Z,99916.59
2023-01-13T22:26:04.352Z,99914.56
2023-01-13T22:28:40.024Z,99914.61
2023-01-13T22:31:12.284Z,99918.94
2023-01-13T22:33:40.620Z,99918.73
2023-01-13T22:36:08.942Z,99920.09
2023-01-13T22:38:36.737Z,99921.34
2023-01-13T22:41:06.220Z,99923.96
2023-01-13T22:43:34.293Z,99926.31
2023-01-13T22:46:02.945Z,99932.86
2023-01-13T22:48:30.673Z,99931.38
2023-01-13T22:51:04.301Z,99939.47
2023-01-13T22:53:32.287Z,99939.13
2023-01-13T22:56:00.260Z,99939.55
2023-01-13T22:58:28.317Z,99945.44
2023-01-13T23:00:56.407Z,99944.25
2023-01-13T23:03:26.425Z,99948.29
2023-01-13T23:05:57.808Z,99953.02
2023-01-13T23:08:25.710Z,99954.52
2023-01-13T23:10:59.704Z,99960.28
2023-01-13T23:13:27.698Z,99955.17
2023-01-13T23:15:55.399Z,99961.65
2023-01-13T23:18:24.627Z,99962.30
2023-01-13T23:20:52.282Z,99964.19
2023-01-13T23:23:20.325Z,99964.20
2023-01-13T23:25:53.451Z,99966.95
2023-01-13T23:28:22.260Z,99967.05
2023-01-13T23:30:51.620Z,99967.86
2023-01-13T23:33:19.764Z,99967.38
2023-01-13T23:35:57.653Z,99966.67
2023-01-13T23:38:25.511Z,99967.95
2023-01-13T23:40:53.183Z,99967.18
2023-01-13T23:43:21.020Z,99966.95
2023-01-13T23:45:48.860Z,99966.50
2023-01-13T23:48:18.552Z,99965.34
2023-01-13T23:50:56.044Z,99967.52
2023-01-13T23:53:24.132Z,99968.71
2023-01-13T23:55:56.580Z,99965.50
2023-01-13T23:58:24.203Z,99970.27
